sensor_id;sensor_type;location;lat;lon;timestamp;temperature;humidity
25332;DHT22;13284;52.748;13.452;2023-05-07T00:01:48;8.80;99.90
25332;DHT22;13284;52.748;13.452;2023-05-07T00:04:13;8.80;99.90
25332;DHT22;13284;52.748;13.452;2023-05-07T00:06:39;8.80;99.90
25332;DHT22;13284;52.748;13.452;2023-05-07T00:09:05;8.70;99.90
25332;DHT22;13284;52.748;13.452;2023-05-07T00:11:31;8.70;99.90
25332;DHT22;13284;52.748;13.452;2023-05-07T00:13:57;8.70;99.90
25332;DHT22;13284;52.748;13.452;2023-05-07T00:16:22;8.70;99.90
25332;DHT22;13284;52.748;13.452;2023-05-07T00:18:48;8.70;99.90
25332;DHT22;13284;52.748;13.452;2023-05-07T00:21:13;8.70;99.90
25332;DHT22;13284;52.748;13.452;2023-05-07T00:23:39;8.70;99.90
25332;DHT22;13284;52.748;13.452;2023-05-07T00:26:05;8.70;99.90
25332;DHT22;13284;52.748;13.452;2023-05-07T00:28:30;8.70;99.90
25332;DHT22;13284;52.748;13.452;2023-05-07T00:30:56;8.80;99.90
25332;DHT22;13284;52.748;13.452;2023-05-07T00:33:22;8.70;99.90
25332;DHT22;13284;52.748;13.452;2023-05-07T00:35:48;8.80;99.90
25332;DHT22;13284;52.748;13.452;2023-05-07T00:38:14;8.70;99.90
25332;DHT22;13284;52.748;13.452;2023-05-07T00:40:39;8.80;99.90
25332;DHT22;13284;52.748;13.452;2023-05-07T00:43:06;8.80;99.90
25332;DHT22;13284;52.748;13.452;2023-05-07T00:45:33;8.80;99.90
25332;DHT22;13284;52.748;13.452;2023-05-07T00:48:00;8.80;99.90
25332;DHT22;13284;52.748;13.452;2023-05-07T00:50:28;8.80;99.90
25332;DHT22;13284;52.748;13.452;2023-05-07T00:52:54;8.80;99.90
25332;DHT22;13284;52.748;13.452;2023-05-07T00:55:21;8.80;99.90
25332;DHT22;13284;52.748;13.452;2023-05-07T00:57:46;8.80;99.90
25332;DHT22;13284;52.748;13.452;2023-05-07T01:00:12;8.80;99.90
25332;DHT22;13284;52.748;13.452;2023-05-07T01:02:42;8.80;99.90
25332;DHT22;13284;52.748;13.452;2023-05-07T01:05:10;8.80;99.90
25332;DHT22;13284;52.748;13.452;2023-05-07T01:07:37;8.80;99.90
25332;DHT22;13284;52.748;13.452;2023-05-07T01:10:04;8.80;99.90
25332;DHT22;13284;52.748;13.452;2023-05-07T01:12:30;8.80;99.90
25332;DHT22;13284;52.748;13.452;2023-05-07T01:14:57;8.80;99.90
25332;DHT22;13284;52.748;13.452;2023-05-07T01:17:23;8.80;99.90
25332;DHT22;13284;52.748;13.452;2023-05-07T01:19:48;8.80;99.90
25332;DHT22;13284;52.748;13.452;2023-05-07T01:22:16;8.80;99.90
25332;DHT22;13284;52.748;13.452;2023-05-07T01:24:46;8.80;99.90
25332;DHT22;13284;52.748;13.452;2023-05-07T01:27:12;8.80;99.90
25332;DHT22;13284;52.748;13.452;2023-05-07T01:29:38;8.80;99.90
25332;DHT22;13284;52.748;13.452;2023-05-07T01:32:05;8.80;99.90
25332;DHT22;13284;52.748;13.452;2023-05-07T01:34:32;8.70;99.90
25332;DHT22;13284;52.748;13.452;2023-05-07T01:36:59;8.80;99.90
25332;DHT22;13284;52.748;13.452;2023-05-07T01:39:26;8.80;99.90
25332;DHT22;13284;52.748;13.452;2023-05-07T01:41:54;8.80;99.90
25332;DHT22;13284;52.748;13.452;2023-05-07T01:44:21;8.80;99.90
25332;DHT22;13284;52.748;13.452;2023-05-07T01:46:47;8.70;99.90
25332;DHT22;13284;52.748;13.452;2023-05-07T01:49:13;8.70;99.90
25332;DHT22;13284;52.748;13.452;2023-05-07T01:51:39;8.70;99.90
25332;DHT22;13284;52.748;13.452;2023-05-07T01:54:05;8.80;99.90
25332;DHT22;13284;52.748;13.452;2023-05-07T01:56:32;8.80;99.90
25332;DHT22;13284;52.748;13.452;2023-05-07T01:58:57;8.80;99.90
25332;DHT22;13284;52.748;13.452;2023-05-07T02:01:23;8.80;99.90
25332;DHT22;13284;52.748;13.452;2023-05-07T02:03:48;8.70;99.90
25332;DHT22;13284;52.748;13.452;2023-05-07T02:06:14;8.70;99.90
25332;DHT22;13284;52.748;13.452;2023-05-07T02:08:39;8.80;99.90
25332;DHT22;13284;52.748;13.452;2023-05-07T02:11:05;8.80;99.90
25332;DHT22;13284;52.748;13.452;2023-05-07T02:13:32;8.80;99.90
25332;DHT22;13284;52.748;13.452;2023-05-07T02:15:57;8.70;99.90
25332;DHT22;13284;52.748;13.452;2023-05-07T02:18:23;8.80;99.90
25332;DHT22;13284;52.748;13.452;2023-05-07T02:20:48;8.80;99.90
25332;DHT22;13284;52.748;13.452;2023-05-07T02:23:14;8.80;99.90
25332;DHT22;13284;52.748;13.452;2023-05-07T02:25:40;8.70;99.90
25332;DHT22;13284;52.748;13.452;2023-05-07T02:28:05;8.80;99.90
25332;DHT22;13284;52.748;13.452;2023-05-07T02:30:31;8.70;99.90
25332;DHT22;13284;52.748;13.452;2023-05-07T02:32:57;8.70;99.90
25332;DHT22;13284;52.748;13.452;2023-05-07T02:35:24;8.70;99.90
25332;DHT22;13284;52.748;13.452;2023-05-07T02:37:50;8.70;99.90
25332;DHT22;13284;52.748;13.452;2023-05-07T02:40:15;8.80;99.90
25332;DHT22;13284;52.748;13.452;2023-05-07T02:42:41;8.80;99.90
25332;DHT22;13284;52.748;13.452;2023-05-07T02:45:07;8.70;99.90
25332;DHT22;13284;52.748;13.452;2023-05-07T02:47:33;8.80;99.90
25332;DHT22;13284;52.748;13.452;2023-05-07T02:49:58;8.70;99.90
25332;DHT22;13284;52.748;13.452;2023-05-07T02:52:24;8.70;99.90
25332;DHT22;13284;52.748;13.452;2023-05-07T02:54:49;8.70;99.90
25332;DHT22;13284;52.748;13.452;2023-05-07T02:57:15;8.70;99.90
25332;DHT22;13284;52.748;13.452;2023-05-07T02:59:42;8.70;99.90
25332;DHT22;13284;52.748;13.452;2023-05-07T03:02:07;8.70;99.90
25332;DHT22;13284;52.748;13.452;2023-05-07T03:04:33;8.70;99.90
25332;DHT22;13284;52.748;13.452;2023-05-07T03:06:58;8.70;99.90
25332;DHT22;13284;52.748;13.452;2023-05-07T03:09:24;8.60;99.90
25332;DHT22;13284;52.748;13.452;2023-05-07T03:11:49;8.70;99.90
25332;DHT22;13284;52.748;13.452;2023-05-07T03:14:15;8.70;99.90
25332;DHT22;13284;52.748;13.452;2023-05-07T03:16:40;8.70;99.90
25332;DHT22;13284;52.748;13.452;2023-05-07T03:19:06;8.70;99.90
25332;DHT22;13284;52.748;13.452;2023-05-07T03:21:31;8.70;99.90
25332;DHT22;13284;52.748;13.452;2023-05-07T03:23:59;8.70;99.90
25332;DHT22;13284;52.748;13.452;2023-05-07T03:26:24;8.70;99.90
25332;DHT22;13284;52.748;13.452;2023-05-07T03:28:50;8.60;99.90
25332;DHT22;13284;52.748;13.452;2023-05-07T03:31:16;8.60;99.90
25332;DHT22;13284;52.748;13.452;2023-05-07T03:33:56;8.60;99.90
25332;DHT22;13284;52.748;13.452;2023-05-07T03:36:22;8.60;99.90
25332;DHT22;13284;52.748;13.452;2023-05-07T03:38:48;8.60;99.90
25332;DHT22;13284;52.748;13.452;2023-05-07T03:41:14;8.60;99.90
25332;DHT22;13284;52.748;13.452;2023-05-07T03:43:39;8.60;99.90
25332;DHT22;13284;52.748;13.452;2023-05-07T03:46:05;8.50;99.90
25332;DHT22;13284;52.748;13.452;2023-05-07T03:48:31;8.60;99.90
25332;DHT22;13284;52.748;13.452;2023-05-07T03:50:57;8.60;99.90
25332;DHT22;13284;52.748;13.452;2023-05-07T03:53:23;8.60;99.90
25332;DHT22;13284;52.748;13.452;2023-05-07T03:55:48;8.70;99.90
25332;DHT22;13284;52.748;13.452;2023-05-07T03:58:15;8.60;99.90
25332;DHT22;13284;52.748;13.452;2023-05-07T04:00:40;8.60;99.90
25332;DHT22;13284;52.748;13.452;2023-05-07T04:03:06;8.60;99.90
25332;DHT22;13284;52.748;13.452;2023-05-07T04:05:31;8.60;99.90
25332;DHT22;13284;52.748;13.452;2023-05-07T04:07:58;8.60;99.90
25332;DHT22;13284;52.748;13.452;2023-05-07T04:10:23;8.70;99.90
25332;DHT22;13284;52.748;13.452;2023-05-07T04:12:49;8.60;99.90
25332;DHT22;13284;52.748;13.452;2023-05-07T04:15:15;8.60;99.90
25332;DHT22;13284;52.748;13.452;2023-05-07T04:17:40;8.60;99.90
25332;DHT22;13284;52.748;13.452;2023-05-07T04:20:09;8.70;99.90
25332;DHT22;13284;52.748;13.452;2023-05-07T04:22:35;8.70;99.90
25332;DHT22;13284;52.748;13.452;2023-05-07T04:25:01;8.70;99.90
25332;DHT22;13284;52.748;13.452;2023-05-07T04:27:27;8.70;99.90
25332;DHT22;13284;52.748;13.452;2023-05-07T04:29:53;8.70;99.90
25332;DHT22;13284;52.748;13.452;2023-05-07T04:32:21;8.70;99.90
25332;DHT22;13284;52.748;13.452;2023-05-07T04:34:46;8.70;99.90
25332;DHT22;13284;52.748;13.452;2023-05-07T04:37:12;8.70;99.90
25332;DHT22;13284;52.748;13.452;2023-05-07T04:39:37;8.70;99.90
25332;DHT22;13284;52.748;13.452;2023-05-07T04:42:03;8.70;99.90
25332;DHT22;13284;52.748;13.452;2023-05-07T04:44:28;8.80;99.90
25332;DHT22;13284;52.748;13.452;2023-05-07T04:46:56;8.80;99.90
25332;DHT22;13284;52.748;13.452;2023-05-07T04:49:21;8.80;99.90
25332;DHT22;13284;52.748;13.452;2023-05-07T04:51:47;8.80;99.90
25332;DHT22;13284;52.748;13.452;2023-05-07T04:54:13;8.80;99.90
25332;DHT22;13284;52.748;13.452;2023-05-07T04:56:38;8.80;99.90
25332;DHT22;13284;52.748;13.452;2023-05-07T04:59:04;8.90;99.90
25332;DHT22;13284;52.748;13.452;2023-05-07T05:01:29;8.90;99.90
25332;DHT22;13284;52.748;13.452;2023-05-07T05:03:55;8.90;99.90
25332;DHT22;13284;52.748;13.452;2023-05-07T05:06:20;9.00;99.90
25332;DHT22;13284;52.748;13.452;2023-05-07T05:08:46;8.90;99.90
25332;DHT22;13284;52.748;13.452;2023-05-07T05:11:11;9.00;99.90
25332;DHT22;13284;52.748;13.452;2023-05-07T05:13:37;8.90;99.90
25332;DHT22;13284;52.748;13.452;2023-05-07T05:16:05;9.00;99.90
25332;DHT22;13284;52.748;13.452;2023-05-07T05:18:31;9.20;99.90
25332;DHT22;13284;52.748;13.452;2023-05-07T05:20:56;9.20;99.90
25332;DHT22;13284;52.748;13.452;2023-05-07T05:23:22;9.30;99.90
25332;DHT22;13284;52.748;13.452;2023-05-07T05:25:47;9.30;99.90
25332;DHT22;13284;52.748;13.452;2023-05-07T05:28:13;9.30;99.90
25332;DHT22;13284;52.748;13.452;2023-05-07T05:30:39;9.30;99.90
25332;DHT22;13284;52.748;13.452;2023-05-07T05:33:04;9.50;99.90
25332;DHT22;13284;52.748;13.452;2023-05-07T05:35:30;9.70;99.90
25332;DHT22;13284;52.748;13.452;2023-05-07T05:37:56;9.60;99.90
25332;DHT22;13284;52.748;13.452;2023-05-07T05:40:21;9.40;99.90
25332;DHT22;13284;52.748;13.452;2023-05-07T05:42:47;9.40;99.90
25332;DHT22;13284;52.748;13.452;2023-05-07T05:45:12;9.50;99.90
25332;DHT22;13284;52.748;13.452;2023-05-07T05:47:38;9.70;99.90
25332;DHT22;13284;52.748;13.452;2023-05-07T05:50:05;9.70;99.90
25332;DHT22;13284;52.748;13.452;2023-05-07T05:52:31;9.70;99.90
25332;DHT22;13284;52.748;13.452;2023-05-07T05:54:57;9.70;99.90
25332;DHT22;13284;52.748;13.452;2023-05-07T05:57:22;9.60;99.90
25332;DHT22;13284;52.748;13.452;2023-05-07T05:59:48;9.50;99.90
25332;DHT22;13284;52.748;13.452;2023-05-07T06:02:13;9.70;99.90
25332;DHT22;13284;52.748;13.452;2023-05-07T06:04:39;9.70;99.90
25332;DHT22;13284;52.748;13.452;2023-05-07T06:07:04;9.80;99.90
25332;DHT22;13284;52.748;13.452;2023-05-07T06:09:30;9.70;99.90
25332;DHT22;13284;52.748;13.452;2023-05-07T06:11:55;9.80;99.90
25332;DHT22;13284;52.748;13.452;2023-05-07T06:14:21;9.80;99.90
25332;DHT22;13284;52.748;13.452;2023-05-07T06:16:46;9.90;99.90
25332;DHT22;13284;52.748;13.452;2023-05-07T06:19:12;9.90;99.90
25332;DHT22;13284;52.748;13.452;2023-05-07T06:21:38;9.90;99.90
25332;DHT22;13284;52.748;13.452;2023-05-07T06:24:04;10.00;99.90
25332;DHT22;13284;52.748;13.452;2023-05-07T06:26:30;10.10;99.90
25332;DHT22;13284;52.748;13.452;2023-05-07T06:28:55;10.20;99.90
25332;DHT22;13284;52.748;13.452;2023-05-07T06:31:21;10.40;99.90
25332;DHT22;13284;52.748;13.452;2023-05-07T06:33:47;10.40;99.90
25332;DHT22;13284;52.748;13.452;2023-05-07T06:36:13;10.40;99.90
25332;DHT22;13284;52.748;13.452;2023-05-07T06:38:38;10.60;99.90
25332;DHT22;13284;52.748;13.452;2023-05-07T06:41:05;10.60;99.90
25332;DHT22;13284;52.748;13.452;2023-05-07T06:43:31;10.60;99.90
25332;DHT22;13284;52.748;13.452;2023-05-07T06:45:57;10.40;99.90
25332;DHT22;13284;52.748;13.452;2023-05-07T06:48:22;10.40;99.90
25332;DHT22;13284;52.748;13.452;2023-05-07T06:50:48;10.50;99.90
25332;DHT22;13284;52.748;13.452;2023-05-07T06:53:13;10.60;99.90
25332;DHT22;13284;52.748;13.452;2023-05-07T06:55:39;10.50;99.90
25332;DHT22;13284;52.748;13.452;2023-05-07T06:58:04;10.60;99.90
25332;DHT22;13284;52.748;13.452;2023-05-07T07:00:31;10.80;99.90
25332;DHT22;13284;52.748;13.452;2023-05-07T07:02:57;10.90;99.90
25332;DHT22;13284;52.748;13.452;2023-05-07T07:05:22;11.00;99.90
25332;DHT22;13284;52.748;13.452;2023-05-07T07:07:48;11.10;99.90
25332;DHT22;13284;52.748;13.452;2023-05-07T07:10:19;11.20;99.90
25332;DHT22;13284;52.748;13.452;2023-05-07T07:12:45;11.20;99.90
25332;DHT22;13284;52.748;13.452;2023-05-07T07:15:10;11.40;99.90
25332;DHT22;13284;52.748;13.452;2023-05-07T07:17:36;11.50;99.90
25332;DHT22;13284;52.748;13.452;2023-05-07T07:20:02;11.50;99.90
25332;DHT22;13284;52.748;13.452;2023-05-07T07:22:28;11.60;99.90
25332;DHT22;13284;52.748;13.452;2023-05-07T07:24:54;11.80;99.90
25332;DHT22;13284;52.748;13.452;2023-05-07T07:27:19;11.90;99.90
25332;DHT22;13284;52.748;13.452;2023-05-07T07:29:45;11.80;99.90
25332;DHT22;13284;52.748;13.452;2023-05-07T07:32:10;12.10;99.90
25332;DHT22;13284;52.748;13.452;2023-05-07T07:34:36;12.10;99.90
25332;DHT22;13284;52.748;13.452;2023-05-07T07:37:01;12.20;99.90
25332;DHT22;13284;52.748;13.452;2023-05-07T07:39:31;12.20;99.90
25332;DHT22;13284;52.748;13.452;2023-05-07T07:41:56;12.20;99.90
25332;DHT22;13284;52.748;13.452;2023-05-07T07:44:22;12.10;99.90
25332;DHT22;13284;52.748;13.452;2023-05-07T07:46:47;12.10;99.90
25332;DHT22;13284;52.748;13.452;2023-05-07T07:49:13;12.20;99.90
25332;DHT22;13284;52.748;13.452;2023-05-07T07:51:39;12.30;99.90
25332;DHT22;13284;52.748;13.452;2023-05-07T07:54:04;12.30;99.90
25332;DHT22;13284;52.748;13.452;2023-05-07T07:56:31;12.50;99.90
25332;DHT22;13284;52.748;13.452;2023-05-07T07:58:57;12.60;99.90
25332;DHT22;13284;52.748;13.452;2023-05-07T08:01:22;12.60;99.90
25332;DHT22;13284;52.748;13.452;2023-05-07T08:03:48;12.70;99.90
25332;DHT22;13284;52.748;13.452;2023-05-07T08:06:14;12.80;99.90
25332;DHT22;13284;52.748;13.452;2023-05-07T08:08:39;13.10;99.90
25332;DHT22;13284;52.748;13.452;2023-05-07T08:11:05;13.30;99.90
25332;DHT22;13284;52.748;13.452;2023-05-07T08:13:30;13.60;99.90
25332;DHT22;13284;52.748;13.452;2023-05-07T08:15:56;14.20;99.90
25332;DHT22;13284;52.748;13.452;2023-05-07T08:18:21;14.50;99.90
25332;DHT22;13284;52.748;13.452;2023-05-07T08:20:48;14.70;99.90
25332;DHT22;13284;52.748;13.452;2023-05-07T08:23:14;14.80;99.90
25332;DHT22;13284;52.748;13.452;2023-05-07T08:25:39;14.50;99.90
25332;DHT22;13284;52.748;13.452;2023-05-07T08:28:05;14.30;99.90
25332;DHT22;13284;52.748;13.452;2023-05-07T08:30:30;14.90;99.90
25332;DHT22;13284;52.748;13.452;2023-05-07T08:32:56;14.80;99.90
25332;DHT22;13284;52.748;13.452;2023-05-07T08:35:21;15.10;99.90
25332;DHT22;13284;52.748;13.452;2023-05-07T08:37:47;15.60;99.90
25332;DHT22;13284;52.748;13.452;2023-05-07T08:40:12;15.50;99.90
25332;DHT22;13284;52.748;13.452;2023-05-07T08:42:39;15.90;99.90
25332;DHT22;13284;52.748;13.452;2023-05-07T08:45:10;15.70;99.90
25332;DHT22;13284;52.748;13.452;2023-05-07T08:47:43;14.90;99.90
25332;DHT22;13284;52.748;13.452;2023-05-07T08:50:12;14.90;99.90
25332;DHT22;13284;52.748;13.452;2023-05-07T08:52:39;14.80;99.90
25332;DHT22;13284;52.748;13.452;2023-05-07T08:55:06;14.90;99.90
25332;DHT22;13284;52.748;13.452;2023-05-07T08:57:32;14.80;99.90
25332;DHT22;13284;52.748;13.452;2023-05-07T08:59:58;14.60;99.90
25332;DHT22;13284;52.748;13.452;2023-05-07T09:02:23;14.70;99.90
25332;DHT22;13284;52.748;13.452;2023-05-07T09:04:49;15.20;99.90
25332;DHT22;13284;52.748;13.452;2023-05-07T09:07:16;15.70;99.90
25332;DHT22;13284;52.748;13.452;2023-05-07T09:09:43;15.40;99.90
25332;DHT22;13284;52.748;13.452;2023-05-07T09:12:12;16.40;99.90
25332;DHT22;13284;52.748;13.452;2023-05-07T09:14:38;16.90;99.90
25332;DHT22;13284;52.748;13.452;2023-05-07T09:17:04;17.60;99.90
25332;DHT22;13284;52.748;13.452;2023-05-07T09:19:29;17.10;99.90
25332;DHT22;13284;52.748;13.452;2023-05-07T09:21:59;16.90;99.90
25332;DHT22;13284;52.748;13.452;2023-05-07T09:24:25;15.90;99.90
25332;DHT22;13284;52.748;13.452;2023-05-07T09:26:50;17.10;99.90
25332;DHT22;13284;52.748;13.452;2023-05-07T09:29:16;17.00;99.90
25332;DHT22;13284;52.748;13.452;2023-05-07T09:31:42;17.40;99.90
25332;DHT22;13284;52.748;13.452;2023-05-07T09:34:08;17.20;99.90
25332;DHT22;13284;52.748;13.452;2023-05-07T09:36:33;16.60;99.90
25332;DHT22;13284;52.748;13.452;2023-05-07T09:39:00;17.60;99.90
25332;DHT22;13284;52.748;13.452;2023-05-07T09:41:26;16.90;99.90
25332;DHT22;13284;52.748;13.452;2023-05-07T09:43:55;17.20;99.90
25332;DHT22;13284;52.748;13.452;2023-05-07T09:46:27;16.90;99.90
25332;DHT22;13284;52.748;13.452;2023-05-07T09:48:53;16.70;99.90
25332;DHT22;13284;52.748;13.452;2023-05-07T09:51:25;16.60;99.90
25332;DHT22;13284;52.748;13.452;2023-05-07T09:53:53;16.60;99.90
25332;DHT22;13284;52.748;13.452;2023-05-07T09:56:19;15.80;99.90
25332;DHT22;13284;52.748;13.452;2023-05-07T09:58:46;15.90;99.90
25332;DHT22;13284;52.748;13.452;2023-05-07T10:01:12;16.30;99.90
25332;DHT22;13284;52.748;13.452;2023-05-07T10:03:40;15.90;99.90
25332;DHT22;13284;52.748;13.452;2023-05-07T10:06:08;16.70;99.90
25332;DHT22;13284;52.748;13.452;2023-05-07T10:08:33;16.90;99.90
25332;DHT22;13284;52.748;13.452;2023-05-07T10:11:00;17.30;99.90
25332;DHT22;13284;52.748;13.452;2023-05-07T10:13:26;17.30;99.90
25332;DHT22;13284;52.748;13.452;2023-05-07T10:15:52;18.40;99.90
25332;DHT22;13284;52.748;13.452;2023-05-07T10:18:20;18.40;99.90
25332;DHT22;13284;52.748;13.452;2023-05-07T10:20:51;18.50;99.90
25332;DHT22;13284;52.748;13.452;2023-05-07T10:23:23;17.80;99.90
25332;DHT22;13284;52.748;13.452;2023-05-07T10:25:49;17.00;99.90
25332;DHT22;13284;52.748;13.452;2023-05-07T10:28:16;17.00;99.90
25332;DHT22;13284;52.748;13.452;2023-05-07T10:30:48;17.00;99.90
25332;DHT22;13284;52.748;13.452;2023-05-07T10:33:23;17.20;99.90
25332;DHT22;13284;52.748;13.452;2023-05-07T10:35:50;17.30;99.90
25332;DHT22;13284;52.748;13.452;2023-05-07T10:38:15;17.20;99.90
25332;DHT22;13284;52.748;13.452;2023-05-07T10:40:41;16.60;99.90
25332;DHT22;13284;52.748;13.452;2023-05-07T10:43:06;16.30;99.90
25332;DHT22;13284;52.748;13.452;2023-05-07T10:45:32;16.00;99.90
25332;DHT22;13284;52.748;13.452;2023-05-07T10:48:15;15.90;99.90
25332;DHT22;13284;52.748;13.452;2023-05-07T10:50:44;15.80;99.90
25332;DHT22;13284;52.748;13.452;2023-05-07T10:55:50;15.90;99.90
25332;DHT22;13284;52.748;13.452;2023-05-07T10:58:29;16.10;99.90
25332;DHT22;13284;52.748;13.452;2023-05-07T11:00:59;16.00;99.90
25332;DHT22;13284;52.748;13.452;2023-05-07T11:03:26;15.90;99.90
25332;DHT22;13284;52.748;13.452;2023-05-07T11:06:09;15.80;99.90
25332;DHT22;13284;52.748;13.452;2023-05-07T11:09:04;15.90;99.90
25332;DHT22;13284;52.748;13.452;2023-05-07T11:11:46;16.00;99.90
25332;DHT22;13284;52.748;13.452;2023-05-07T11:17:07;17.50;99.90
25332;DHT22;13284;52.748;13.452;2023-05-07T11:19:49;17.20;99.90
25332;DHT22;13284;52.748;13.452;2023-05-07T11:25:00;18.40;99.90
25332;DHT22;13284;52.748;13.452;2023-05-07T11:27:26;18.90;99.90
25332;DHT22;13284;52.748;13.452;2023-05-07T11:29:52;19.10;99.90
25332;DHT22;13284;52.748;13.452;2023-05-07T11:34:57;19.60;99.90
25332;DHT22;13284;52.748;13.452;2023-05-07T11:37:24;19.70;99.90
25332;DHT22;13284;52.748;13.452;2023-05-07T11:39:50;20.00;99.90
25332;DHT22;13284;52.748;13.452;2023-05-07T11:42:32;19.70;99.90
25332;DHT22;13284;52.748;13.452;2023-05-07T11:44:59;18.80;99.90
25332;DHT22;13284;52.748;13.452;2023-05-07T11:47:25;17.90;99.90
25332;DHT22;13284;52.748;13.452;2023-05-07T11:49:52;17.80;99.90
25332;DHT22;13284;52.748;13.452;2023-05-07T11:52:22;18.70;99.90
25332;DHT22;13284;52.748;13.452;2023-05-07T11:54:51;19.00;99.90
25332;DHT22;13284;52.748;13.452;2023-05-07T11:57:17;19.70;99.90
25332;DHT22;13284;52.748;13.452;2023-05-07T11:59:43;19.90;99.90
25332;DHT22;13284;52.748;13.452;2023-05-07T12:02:15;20.20;99.90
25332;DHT22;13284;52.748;13.452;2023-05-07T12:04:41;20.30;99.90
25332;DHT22;13284;52.748;13.452;2023-05-07T12:07:14;20.50;99.90
25332;DHT22;13284;52.748;13.452;2023-05-07T12:09:41;19.70;99.90
25332;DHT22;13284;52.748;13.452;2023-05-07T12:12:07;20.10;99.90
25332;DHT22;13284;52.748;13.452;2023-05-07T12:14:33;21.40;99.90
25332;DHT22;13284;52.748;13.452;2023-05-07T12:17:04;21.30;99.90
25332;DHT22;13284;52.748;13.452;2023-05-07T12:19:31;21.90;99.90
25332;DHT22;13284;52.748;13.452;2023-05-07T12:21:57;22.10;99.90
25332;DHT22;13284;52.748;13.452;2023-05-07T12:24:22;22.20;99.90
25332;DHT22;13284;52.748;13.452;2023-05-07T12:26:48;21.70;99.90
25332;DHT22;13284;52.748;13.452;2023-05-07T12:29:14;20.80;99.90
25332;DHT22;13284;52.748;13.452;2023-05-07T12:31:43;20.90;99.90
25332;DHT22;13284;52.748;13.452;2023-05-07T12:34:11;19.70;99.90
25332;DHT22;13284;52.748;13.452;2023-05-07T12:36:37;20.00;99.90
25332;DHT22;13284;52.748;13.452;2023-05-07T12:39:07;19.10;99.90
25332;DHT22;13284;52.748;13.452;2023-05-07T12:41:55;19.70;99.90
25332;DHT22;13284;52.748;13.452;2023-05-07T12:44:28;19.60;99.90
25332;DHT22;13284;52.748;13.452;2023-05-07T12:46:54;20.10;99.90
25332;DHT22;13284;52.748;13.452;2023-05-07T12:49:20;21.00;99.90
25332;DHT22;13284;52.748;13.452;2023-05-07T12:51:47;21.50;99.90
25332;DHT22;13284;52.748;13.452;2023-05-07T12:54:13;22.10;99.90
25332;DHT22;13284;52.748;13.452;2023-05-07T12:56:40;22.70;99.90
25332;DHT22;13284;52.748;13.452;2023-05-07T12:59:05;22.00;99.90
25332;DHT22;13284;52.748;13.452;2023-05-07T13:01:34;21.50;99.90
25332;DHT22;13284;52.748;13.452;2023-05-07T13:04:03;21.80;99.90
25332;DHT22;13284;52.748;13.452;2023-05-07T13:06:30;22.70;99.90
25332;DHT22;13284;52.748;13.452;2023-05-07T13:08:56;21.80;99.30
25332;DHT22;13284;52.748;13.452;2023-05-07T13:11:22;20.80;99.90
25332;DHT22;13284;52.748;13.452;2023-05-07T13:13:48;20.10;99.90
25332;DHT22;13284;52.748;13.452;2023-05-07T13:16:13;20.20;99.90
25332;DHT22;13284;52.748;13.452;2023-05-07T13:18:40;19.00;99.90
25332;DHT22;13284;52.748;13.452;2023-05-07T13:21:05;19.10;99.90
25332;DHT22;13284;52.748;13.452;2023-05-07T13:23:31;19.50;99.90
25332;DHT22;13284;52.748;13.452;2023-05-07T13:25:56;19.10;99.90
25332;DHT22;13284;52.748;13.452;2023-05-07T13:28:23;18.30;99.90
25332;DHT22;13284;52.748;13.452;2023-05-07T13:30:49;18.60;99.90
25332;DHT22;13284;52.748;13.452;2023-05-07T13:33:14;19.50;99.90
25332;DHT22;13284;52.748;13.452;2023-05-07T13:35:41;20.20;99.90
25332;DHT22;13284;52.748;13.452;2023-05-07T13:38:07;20.50;99.90
25332;DHT22;13284;52.748;13.452;2023-05-07T13:40:32;20.50;99.90
25332;DHT22;13284;52.748;13.452;2023-05-07T13:42:59;21.20;99.90
25332;DHT22;13284;52.748;13.452;2023-05-07T13:45:27;21.50;99.90
25332;DHT22;13284;52.748;13.452;2023-05-07T13:47:54;21.30;98.90
25332;DHT22;13284;52.748;13.452;2023-05-07T13:50:20;21.30;99.00
25332;DHT22;13284;52.748;13.452;2023-05-07T13:52:46;20.90;99.90
25332;DHT22;13284;52.748;13.452;2023-05-07T13:55:20;20.10;99.90
25332;DHT22;13284;52.748;13.452;2023-05-07T13:57:46;19.80;99.60
25332;DHT22;13284;52.748;13.452;2023-05-07T14:00:13;20.10;99.90
25332;DHT22;13284;52.748;13.452;2023-05-07T14:02:39;19.80;99.90
25332;DHT22;13284;52.748;13.452;2023-05-07T14:05:05;19.40;99.90
25332;DHT22;13284;52.748;13.452;2023-05-07T14:07:30;18.90;99.90
25332;DHT22;13284;52.748;13.452;2023-05-07T14:09:56;18.50;99.90
25332;DHT22;13284;52.748;13.452;2023-05-07T14:12:22;18.30;99.90
25332;DHT22;13284;52.748;13.452;2023-05-07T14:14:48;18.00;99.90
25332;DHT22;13284;52.748;13.452;2023-05-07T14:17:18;17.70;99.90
25332;DHT22;13284;52.748;13.452;2023-05-07T14:19:44;17.40;99.90
25332;DHT22;13284;52.748;13.452;2023-05-07T14:22:09;17.30;99.90
25332;DHT22;13284;52.748;13.452;2023-05-07T14:24:36;17.40;99.90
25332;DHT22;13284;52.748;13.452;2023-05-07T14:27:01;18.00;99.90
25332;DHT22;13284;52.748;13.452;2023-05-07T14:29:27;18.00;99.90
25332;DHT22;13284;52.748;13.452;2023-05-07T14:31:53;17.70;99.90
25332;DHT22;13284;52.748;13.452;2023-05-07T14:34:18;17.60;99.90
25332;DHT22;13284;52.748;13.452;2023-05-07T14:36:44;18.00;99.90
25332;DHT22;13284;52.748;13.452;2023-05-07T14:39:10;18.50;99.90
25332;DHT22;13284;52.748;13.452;2023-05-07T14:41:35;18.60;99.90
25332;DHT22;13284;52.748;13.452;2023-05-07T14:44:01;18.60;99.90
25332;DHT22;13284;52.748;13.452;2023-05-07T14:46:29;18.60;99.90
25332;DHT22;13284;52.748;13.452;2023-05-07T14:48:56;18.60;99.90
25332;DHT22;13284;52.748;13.452;2023-05-07T14:51:22;18.60;99.90
25332;DHT22;13284;52.748;13.452;2023-05-07T14:53:47;18.20;99.90
25332;DHT22;13284;52.748;13.452;2023-05-07T14:56:13;18.30;99.90
25332;DHT22;13284;52.748;13.452;2023-05-07T14:58:38;18.20;99.90
25332;DHT22;13284;52.748;13.452;2023-05-07T15:01:04;18.40;99.90
25332;DHT22;13284;52.748;13.452;2023-05-07T15:03:30;18.70;99.90
25332;DHT22;13284;52.748;13.452;2023-05-07T15:05:55;19.00;99.90
25332;DHT22;13284;52.748;13.452;2023-05-07T15:08:21;19.10;99.90
25332;DHT22;13284;52.748;13.452;2023-05-07T15:10:47;19.10;99.90
25332;DHT22;13284;52.748;13.452;2023-05-07T15:13:13;19.50;99.90
25332;DHT22;13284;52.748;13.452;2023-05-07T15:15:39;19.60;99.90
25332;DHT22;13284;52.748;13.452;2023-05-07T15:18:04;19.10;99.90
25332;DHT22;13284;52.748;13.452;2023-05-07T15:20:30;18.60;99.90
25332;DHT22;13284;52.748;13.452;2023-05-07T15:22:56;18.10;99.90
25332;DHT22;13284;52.748;13.452;2023-05-07T15:25:22;17.80;99.90
25332;DHT22;13284;52.748;13.452;2023-05-07T15:27:48;17.90;99.90
25332;DHT22;13284;52.748;13.452;2023-05-07T15:30:14;18.00;99.90